Time;durP1;ratioP1;P1;durP2;ratioP2;P2;SDS_P1;SDS_P2;PMS_P1;PMS_P2;Temp;Humidity;BMP_temperature;BMP_pressure;BME280_temperature;BME280_humidity;BME280_pressure;Samples;Min_cycle;Max_cycle;Signal;HPM_P1;HPM_P2
2022/05/27 00:01:28;;;;;;;2.55;0.70;;;19.30;78.50;;;;;;5049354;28;20047;-81
2022/05/27 00:03:55;;;;;;;0.77;0.52;;;19.30;78.70;;;;;;5051328;28;20032;-81
2022/05/27 00:06:21;;;;;;;4.75;0.70;;;19.20;79.00;;;;;;5053117;28;20029;-82
2022/05/27 00:08:48;;;;;;;1.80;0.73;;;19.30;78.70;;;;;;5053083;28;20065;-81
2022/05/27 00:11:13;;;;;;;4.57;0.80;;;19.20;79.30;;;;;;5054231;28;20028;-82
2022/05/27 00:13:39;;;;;;;2.00;0.85;;;19.20;79.40;;;;;;5052258;28;20055;-83
2022/05/27 00:16:05;;;;;;;1.90;0.60;;;19.20;79.30;;;;;;5051373;28;20029;-81
2022/05/27 00:18:31;;;;;;;3.50;0.68;;;19.20;79.60;;;;;;5054237;28;20028;-82
2022/05/27 00:20:58;;;;;;;3.05;1.02;;;19.20;79.50;;;;;;5051623;28;20040;-83
2022/05/27 00:23:24;;;;;;;7.80;1.25;;;19.20;79.10;;;;;;5053514;28;20033;-82
2022/05/27 00:25:49;;;;;;;2.97;1.15;;;19.20;78.90;;;;;;5051785;28;20514;-83
2022/05/27 00:28:15;;;;;;;4.72;0.70;;;19.20;79.20;;;;;;5049723;28;20033;-83
2022/05/27 00:30:41;;;;;;;1.98;0.88;;;19.20;79.40;;;;;;5049757;28;20039;-82
2022/05/27 00:33:07;;;;;;;3.85;0.85;;;19.20;79.20;;;;;;5052418;28;20079;-83
2022/05/27 00:35:33;;;;;;;2.28;0.95;;;19.20;79.50;;;;;;5059336;28;20029;-81
2022/05/27 00:37:59;;;;;;;2.55;0.88;;;19.20;78.90;;;;;;5049629;28;20032;-82
2022/05/27 00:40:26;;;;;;;3.72;0.90;;;19.20;79.50;;;;;;5050499;28;20030;-83
2022/05/27 00:42:52;;;;;;;2.85;0.70;;;19.30;79.20;;;;;;5048849;28;20512;-82
2022/05/27 00:45:23;;;;;;;2.40;0.80;;;19.20;79.10;;;;;;5050604;28;20108;-83
2022/05/27 00:47:57;;;;;;;4.18;0.85;;;19.20;79.30;;;;;;5051044;28;20025;-82
2022/05/27 00:50:29;;;;;;;1.50;0.90;;;19.20;79.30;;;;;;5050757;28;20021;-83
2022/05/27 00:52:56;;;;;;;4.72;0.70;;;19.20;79.50;;;;;;5049815;28;20037;-83
2022/05/27 00:55:28;;;;;;;2.05;0.70;;;19.20;79.40;;;;;;5049720;28;20182;-82
2022/05/27 00:58:01;;;;;;;2.67;0.70;;;19.20;79.60;;;;;;5049278;28;20124;-83
2022/05/27 01:00:26;;;;;;;1.83;0.85;;;19.20;79.60;;;;;;5049783;28;20033;-81
2022/05/27 01:02:55;;;;;;;1.80;0.70;;;19.20;79.70;;;;;;5050621;28;20447;-82
2022/05/27 01:05:22;;;;;;;3.33;1.05;;;19.20;80.00;;;;;;5050952;28;20108;-83
2022/05/27 01:07:55;;;;;;;3.53;0.70;;;19.30;79.60;;;;;;5053872;28;20025;-82
2022/05/27 01:10:21;;;;;;;2.30;0.82;;;19.30;79.90;;;;;;5059900;28;20029;-84
2022/05/27 01:12:58;;;;;;;4.63;1.10;;;19.20;79.70;;;;;;5059026;28;20033;-82
2022/05/27 01:16:00;;;;;;;2.78;0.77;;;19.20;79.90;;;;;;5056761;28;20037;-83
2022/05/27 01:22:08;;;;;;;1.55;1.13;;;19.20;79.90;;;;;;5051261;28;20103;-82
2022/05/27 01:25:09;;;;;;;2.95;0.82;;;19.20;80.10;;;;;;5050415;28;20734;-82
2022/05/27 01:27:51;;;;;;;2.80;0.60;;;19.20;80.70;;;;;;5040454;28;20048;-82
2022/05/27 01:30:29;;;;;;;2.40;0.63;;;19.10;80.50;;;;;;5049078;28;20508;-82
2022/05/27 01:33:11;;;;;;;4.32;0.80;;;19.10;81.40;;;;;;5053052;28;20124;-85
2022/05/27 01:35:51;;;;;;;3.10;0.77;;;19.10;81.30;;;;;;5040268;28;20030;-84
2022/05/27 01:38:25;;;;;;;3.13;1.05;;;19.10;81.20;;;;;;5033894;28;20089;-83
2022/05/27 01:40:56;;;;;;;4.82;0.80;;;19.10;81.10;;;;;;5033232;28;20425;-83
2022/05/27 01:43:34;;;;;;;2.90;0.65;;;19.00;81.00;;;;;;5032431;28;20028;-84
2022/05/27 01:46:15;;;;;;;2.75;0.80;;;19.10;80.80;;;;;;5031447;28;20036;-83
2022/05/27 01:48:59;;;;;;;3.13;0.82;;;19.10;81.20;;;;;;5033649;28;20052;-83
2022/05/27 01:51:33;;;;;;;3.80;0.93;;;19.10;81.40;;;;;;5032736;28;20033;-83
2022/05/27 01:54:17;;;;;;;2.35;0.73;;;19.10;81.50;;;;;;5033485;28;20056;-85
2022/05/27 01:56:58;;;;;;;2.33;0.88;;;19.10;81.60;;;;;;5032873;28;20084;-82
2022/05/27 01:59:31;;;;;;;3.53;0.70;;;19.10;81.90;;;;;;5032080;28;20037;-85
2022/05/27 02:02:14;;;;;;;3.60;0.73;;;19.00;82.10;;;;;;5032748;28;20090;-83
2022/05/27 02:04:46;;;;;;;3.08;0.73;;;19.00;82.50;;;;;;5033653;28;20072;-84
2022/05/27 02:07:19;;;;;;;2.58;0.95;;;18.90;82.50;;;;;;5031688;28;20044;-84
2022/05/27 02:09:50;;;;;;;1.83;0.80;;;19.00;82.50;;;;;;5033730;28;20037;-82
2022/05/27 02:12:41;;;;;;;2.30;0.90;;;19.00;82.20;;;;;;5031926;28;20057;-82
2022/05/27 02:15:12;;;;;;;2.83;0.70;;;19.00;82.60;;;;;;5033951;28;20037;-83
2022/05/27 02:17:44;;;;;;;3.90;1.08;;;19.00;82.70;;;;;;5036528;28;20021;-82
2022/05/27 02:20:33;;;;;;;3.55;1.17;;;18.90;82.90;;;;;;5033708;28;20032;-83
2022/05/27 02:23:03;;;;;;;4.18;1.00;;;19.00;83.10;;;;;;5033947;28;20129;-84
2022/05/27 02:25:30;;;;;;;3.65;0.80;;;19.00;82.90;;;;;;5031228;28;20104;-82
2022/05/27 02:28:04;;;;;;;3.20;0.68;;;19.00;83.00;;;;;;5031281;28;20470;-84
2022/05/27 02:30:33;;;;;;;2.28;0.90;;;19.00;83.10;;;;;;5032784;28;20144;-83
2022/05/27 02:36:03;;;;;;;1.52;0.60;;;19.00;83.50;;;;;;5031950;28;20113;-83
2022/05/27 02:38:29;;;;;;;2.50;1.13;;;19.00;84.30;;;;;;5031158;28;20030;-83
2022/05/27 02:41:07;;;;;;;3.20;1.23;;;18.90;83.80;;;;;;5030503;28;20035;-84
2022/05/27 02:44:17;;;;;;;4.13;1.23;;;18.90;83.80;;;;;;5030285;28;20080;-83
2022/05/27 02:47:12;;;;;;;4.05;1.02;;;18.90;84.10;;;;;;5011532;28;20171;-85
2022/05/27 02:49:52;;;;;;;3.30;0.90;;;18.80;84.50;;;;;;5030907;28;20040;-82
2022/05/27 02:52:53;;;;;;;5.18;0.95;;;18.80;84.90;;;;;;5031860;28;20034;-83
2022/05/27 02:55:32;;;;;;;3.50;1.10;;;18.80;84.90;;;;;;5032165;28;20037;-81
2022/05/27 02:58:02;;;;;;;1.25;0.70;;;18.90;84.70;;;;;;5031768;28;20095;-83
2022/05/27 03:00:31;;;;;;;3.17;0.90;;;18.90;85.00;;;;;;5030621;28;20512;-81
2022/05/27 03:02:59;;;;;;;4.95;1.60;;;18.80;85.20;;;;;;5029695;28;20040;-82
2022/05/27 03:05:29;;;;;;;4.28;1.70;;;18.80;86.00;;;;;;5031058;28;20426;-80
2022/05/27 03:08:19;;;;;;;1.95;0.93;;;18.70;85.80;;;;;;5030272;28;20087;-84
2022/05/27 03:11:22;;;;;;;3.95;0.80;;;18.70;86.30;;;;;;5030001;28;20038;-84
2022/05/27 03:14:18;;;;;;;4.38;1.13;;;18.70;86.50;;;;;;5030035;28;20033;-83
2022/05/27 03:16:49;;;;;;;2.50;0.85;;;18.80;86.50;;;;;;5029557;28;20497;-81
2022/05/27 03:19:45;;;;;;;1.73;0.63;;;18.80;86.60;;;;;;5030203;28;20040;-83
2022/05/27 03:22:18;;;;;;;3.65;1.08;;;18.70;87.20;;;;;;5029798;28;20156;-81
2022/05/27 03:25:21;;;;;;;2.90;0.80;;;18.80;87.30;;;;;;5031517;28;20025;-85
2022/05/27 03:27:58;;;;;;;2.42;0.80;;;18.80;87.40;;;;;;5030022;28;20101;-86
2022/05/27 03:30:34;;;;;;;4.43;1.00;;;18.80;87.60;;;;;;5031493;28;20041;-86
2022/05/27 03:33:20;;;;;;;2.47;0.68;;;18.80;87.80;;;;;;5030981;28;20037;-83
2022/05/27 03:35:50;;;;;;;1.75;0.63;;;18.80;87.90;;;;;;5029216;28;20072;-82
2022/05/27 03:38:40;;;;;;;8.13;0.60;;;18.70;88.10;;;;;;5029905;28;20132;-83
2022/05/27 03:41:17;;;;;;;2.67;1.10;;;18.70;88.50;;;;;;5030448;28;20108;-81
2022/05/27 03:43:44;;;;;;;3.45;0.90;;;18.80;88.40;;;;;;5031111;28;20029;-82
2022/05/27 03:46:10;;;;;;;2.83;0.77;;;18.80;88.60;;;;;;5030333;28;20501;-84
2022/05/27 03:48:37;;;;;;;4.95;1.33;;;18.80;88.80;;;;;;5029596;28;20025;-81
2022/05/27 03:51:20;;;;;;;2.67;1.10;;;18.70;89.10;;;;;;5030540;28;20106;-84
2022/05/27 03:54:04;;;;;;;2.63;0.88;;;18.70;89.20;;;;;;5031072;28;20030;-82
2022/05/27 03:56:35;;;;;;;1.83;0.70;;;18.70;89.40;;;;;;5028549;28;20034;-81
2022/05/27 03:59:02;;;;;;;3.50;0.95;;;18.70;89.60;;;;;;5045976;28;20039;-81
2022/05/27 04:01:29;;;;;;;1.92;0.95;;;18.60;89.90;;;;;;5029063;28;20041;-83
2022/05/27 04:04:00;;;;;;;1.95;0.63;;;18.60;90.00;;;;;;5030574;28;20382;-82
2022/05/27 04:06:28;;;;;;;1.20;0.70;;;18.60;90.10;;;;;;5028985;28;20060;-84
2022/05/27 04:08:54;;;;;;;1.95;1.10;;;18.60;90.40;;;;;;5030585;28;20099;-82
2022/05/27 04:11:20;;;;;;;3.33;0.88;;;18.60;90.40;;;;;;5029071;28;20122;-83
2022/05/27 04:13:47;;;;;;;3.75;0.80;;;18.60;91.10;;;;;;5030584;28;20183;-82
2022/05/27 04:16:13;;;;;;;4.40;1.20;;;18.50;91.50;;;;;;5029022;28;20057;-82
2022/05/27 04:18:38;;;;;;;3.60;1.00;;;18.50;91.70;;;;;;5030717;28;20095;-84
2022/05/27 04:21:04;;;;;;;1.85;1.05;;;18.40;91.90;;;;;;5028855;28;20034;-84
2022/05/27 04:23:29;;;;;;;1.48;0.80;;;18.40;92.10;;;;;;5030839;28;20036;-84
2022/05/27 04:25:55;;;;;;;2.97;0.90;;;18.40;92.20;;;;;;5028815;28;20424;-84
2022/05/27 04:28:20;;;;;;;2.97;0.88;;;18.40;92.30;;;;;;5029495;28;20017;-84
2022/05/27 04:30:46;;;;;;;5.13;1.17;;;18.30;92.50;;;;;;5029143;28;20025;-85
2022/05/27 04:33:12;;;;;;;3.38;1.02;;;18.30;92.60;;;;;;5029289;28;20478;-84
2022/05/27 04:35:38;;;;;;;4.78;0.93;;;18.30;92.90;;;;;;5030656;28;20502;-83
2022/05/27 04:38:04;;;;;;;1.95;1.02;;;18.30;93.00;;;;;;5029977;28;20059;-84
2022/05/27 04:40:30;;;;;;;2.83;1.27;;;18.30;93.10;;;;;;5036697;28;20128;-85
2022/05/27 04:42:56;;;;;;;2.63;1.10;;;18.30;93.30;;;;;;5041036;28;20061;-82
2022/05/27 04:45:21;;;;;;;4.78;1.30;;;18.30;93.70;;;;;;5031987;28;20029;-82
2022/05/27 04:47:47;;;;;;;3.70;1.00;;;18.30;93.80;;;;;;5030551;28;20030;-82
2022/05/27 04:50:14;;;;;;;6.70;1.20;;;18.30;94.00;;;;;;5031601;28;20025;-81
2022/05/27 04:52:40;;;;;;;3.05;1.00;;;18.20;94.00;;;;;;5030429;28;20041;-83
2022/05/27 04:55:13;;;;;;;3.17;1.35;;;18.20;94.20;;;;;;5030398;28;20045;-82
2022/05/27 04:57:44;;;;;;;4.05;1.10;;;18.20;94.20;;;;;;5028908;28;20041;-82
2022/05/27 05:00:15;;;;;;;3.63;1.60;;;18.20;94.30;;;;;;5029996;28;20045;-83
2022/05/27 05:02:42;;;;;;;5.55;1.50;;;18.10;94.40;;;;;;5029778;28;20044;-82
2022/05/27 05:05:09;;;;;;;3.38;2.20;;;18.00;94.80;;;;;;5028647;28;20033;-84
2022/05/27 05:07:36;;;;;;;3.63;1.33;;;18.00;95.20;;;;;;5031497;28;20038;-82
2022/05/27 05:10:02;;;;;;;3.22;1.73;;;18.00;95.40;;;;;;5033957;28;20021;-82
2022/05/27 05:12:28;;;;;;;4.10;1.38;;;17.80;96.30;;;;;;5033718;28;20041;-84
2022/05/27 05:14:54;;;;;;;5.28;1.05;;;17.70;96.50;;;;;;5032681;28;20545;-83
2022/05/27 05:17:20;;;;;;;3.92;1.20;;;17.60;97.00;;;;;;5033231;28;20029;-81
2022/05/27 05:19:47;;;;;;;2.95;1.23;;;17.40;98.00;;;;;;5033868;28;20124;-82
2022/05/27 05:22:13;;;;;;;3.42;1.60;;;17.30;98.40;;;;;;5033580;28;20033;-82
2022/05/27 05:24:39;;;;;;;3.92;1.70;;;17.20;98.80;;;;;;5032337;28;20029;-81
2022/05/27 05:27:05;;;;;;;4.63;1.80;;;17.00;99.40;;;;;;5031497;28;20592;-82
2022/05/27 05:29:31;;;;;;;3.35;1.52;;;16.80;99.90;;;;;;5033948;28;20096;-81
2022/05/27 05:31:56;;;;;;;4.63;2.10;;;16.70;99.90;;;;;;5032118;28;20025;-82
2022/05/27 05:34:21;;;;;;;4.85;2.53;;;16.60;99.90;;;;;;5033713;28;20029;-82
2022/05/27 05:36:47;;;;;;;4.75;1.83;;;16.40;99.90;;;;;;5033298;28;20121;-82
2022/05/27 05:39:13;;;;;;;9.00;2.45;;;16.30;99.90;;;;;;5034175;28;20040;-82
2022/05/27 05:41:40;;;;;;;5.15;1.95;;;16.30;99.90;;;;;;5031764;28;20116;-82
2022/05/27 05:44:08;;;;;;;5.25;1.73;;;16.30;99.90;;;;;;5033517;28;20029;-83
2022/05/27 05:46:36;;;;;;;5.28;2.03;;;16.20;99.90;;;;;;5031766;28;20021;-82
2022/05/27 05:49:03;;;;;;;4.15;1.95;;;16.30;99.90;;;;;;5033391;28;20029;-84
2022/05/27 05:51:29;;;;;;;2.28;1.60;;;16.30;99.90;;;;;;5031731;28;20076;-84
2022/05/27 05:53:54;;;;;;;5.35;2.25;;;16.30;99.90;;;;;;5031844;28;20061;-82
2022/05/27 05:56:21;;;;;;;4.40;1.70;;;16.30;99.90;;;;;;5031402;28;20076;-82
2022/05/27 05:58:49;;;;;;;4.35;1.63;;;16.30;99.90;;;;;;5032043;28;20041;-81
2022/05/27 06:01:16;;;;;;;3.22;1.85;;;16.30;99.90;;;;;;5032997;28;20033;-83
2022/05/27 06:03:41;;;;;;;3.33;1.52;;;16.30;99.90;;;;;;5031598;28;20359;-82
2022/05/27 06:06:07;;;;;;;3.53;1.58;;;16.30;99.90;;;;;;5030951;28;20060;-83
2022/05/27 06:08:32;;;;;;;6.03;1.35;;;16.20;99.90;;;;;;5031807;28;20026;-82
2022/05/27 06:10:58;;;;;;;2.67;1.60;;;16.20;99.90;;;;;;5031362;28;20520;-84
2022/05/27 06:13:26;;;;;;;4.28;1.58;;;16.30;99.90;;;;;;5031859;28;20028;-84
2022/05/27 06:15:51;;;;;;;4.40;1.67;;;16.30;99.90;;;;;;5031183;28;20065;-83
2022/05/27 06:18:16;;;;;;;3.70;1.50;;;16.20;99.90;;;;;;5030639;28;20052;-84
2022/05/27 06:20:42;;;;;;;1.20;0.60;;;16.20;99.90;;;;;;5032783;28;20030;-82
2022/05/27 06:23:08;;;;;;;2.45;0.80;;;16.10;99.90;;;;;;5032094;28;20488;-82
2022/05/27 06:25:34;;;;;;;5.22;0.80;;;15.90;99.90;;;;;;5031720;28;20052;-85
2022/05/27 06:36:14;;;;;;;2.67;0.40;;;14.90;99.90;;;;;;5032178;28;20068;-83
2022/05/27 06:38:39;;;;;;;1.52;0.60;;;14.80;99.90;;;;;;5032951;28;20029;-81
2022/05/27 06:41:05;;;;;;;0.77;0.30;;;14.80;99.90;;;;;;5030697;28;20375;-83
2022/05/27 06:43:32;;;;;;;0.93;0.60;;;14.80;99.90;;;;;;5031434;28;20026;-82
2022/05/27 06:45:59;;;;;;;1.38;0.50;;;14.70;99.90;;;;;;5030568;28;20033;-81
2022/05/27 06:48:25;;;;;;;0.93;0.55;;;14.80;99.90;;;;;;5032741;28;20037;-83
2022/05/27 06:50:51;;;;;;;1.38;0.40;;;14.90;99.90;;;;;;5032310;28;20029;-83
2022/05/27 06:53:16;;;;;;;0.70;0.40;;;14.90;99.90;;;;;;5031278;28;20533;-82
2022/05/27 06:55:51;;;;;;;3.33;0.60;;;15.10;99.90;;;;;;5030452;28;20068;-82
2022/05/27 06:58:17;;;;;;;3.50;0.45;;;15.10;99.90;;;;;;5032361;28;20401;-82
2022/05/27 07:00:42;;;;;;;0.50;0.40;;;15.10;99.90;;;;;;5031659;28;20026;-83
2022/05/27 07:03:08;;;;;;;1.13;0.40;;;15.10;99.90;;;;;;5032698;28;20037;-83
2022/05/27 07:05:35;;;;;;;0.90;0.40;;;15.20;99.90;;;;;;5032976;28;20025;-83
2022/05/27 07:08:02;;;;;;;2.40;0.50;;;15.30;99.90;;;;;;5033129;28;20033;-83
2022/05/27 07:10:28;;;;;;;0.90;0.30;;;15.40;99.90;;;;;;5034333;28;20441;-81
2022/05/27 07:12:58;;;;;;;3.03;0.60;;;15.40;99.90;;;;;;5033141;28;20083;-81
2022/05/27 07:15:24;;;;;;;0.70;0.40;;;15.40;99.80;;;;;;5034970;28;20022;-82
2022/05/27 07:17:49;;;;;;;1.20;0.60;;;15.40;99.90;;;;;;5040590;28;20052;-81
2022/05/27 07:20:15;;;;;;;0.95;0.52;;;15.40;99.90;;;;;;5036067;28;20068;-82
2022/05/27 07:22:40;;;;;;;0.57;0.35;;;15.40;99.60;;;;;;5032750;28;20047;-82
2022/05/27 07:25:09;;;;;;;0.55;0.40;;;15.40;99.70;;;;;;5034216;28;20112;-82
2022/05/27 07:27:34;;;;;;;0.32;0.30;;;15.40;99.60;;;;;;5032354;28;20049;-83
2022/05/27 07:30:00;;;;;;;3.50;0.88;;;15.40;99.00;;;;;;5031980;28;20067;-82
2022/05/27 07:32:25;;;;;;;0.65;0.43;;;15.40;99.70;;;;;;5031189;28;20029;-82
2022/05/27 07:34:51;;;;;;;0.50;0.40;;;15.50;99.50;;;;;;5033269;28;20432;-82
2022/05/27 07:37:16;;;;;;;0.75;0.40;;;15.50;98.70;;;;;;5031792;28;20049;-83
2022/05/27 07:39:41;;;;;;;2.20;0.40;;;15.60;99.10;;;;;;5031501;28;20026;-81
2022/05/27 07:42:07;;;;;;;0.98;0.40;;;15.60;99.20;;;;;;5031278;28;20074;-82
2022/05/27 07:44:32;;;;;;;1.00;0.50;;;15.70;99.20;;;;;;5030336;28;20029;-84
2022/05/27 07:46:58;;;;;;;0.93;0.40;;;15.90;99.90;;;;;;5029531;28;20027;-81
2022/05/27 07:49:23;;;;;;;0.47;0.40;;;16.00;99.90;;;;;;5031496;28;20111;-82
2022/05/27 07:51:49;;;;;;;1.65;0.60;;;16.20;99.90;;;;;;5029889;28;20794;-81
2022/05/27 07:54:14;;;;;;;1.15;0.60;;;16.40;98.90;;;;;;5030409;28;20402;-81
2022/05/27 07:56:42;;;;;;;0.52;0.40;;;16.50;99.10;;;;;;5030565;28;20079;-81
2022/05/27 07:59:08;;;;;;;1.48;0.60;;;16.70;99.40;;;;;;5032129;28;20120;-83
2022/05/27 08:01:36;;;;;;;2.33;0.50;;;16.80;98.40;;;;;;5032533;28;20091;-82
2022/05/27 08:04:01;;;;;;;1.15;0.63;;;16.80;98.80;;;;;;5033789;28;20032;-82
2022/05/27 08:06:27;;;;;;;0.73;0.50;;;16.90;98.90;;;;;;5036893;28;20053;-81
2022/05/27 08:08:52;;;;;;;0.93;0.60;;;16.90;98.00;;;;;;5038545;28;20054;-82
2022/05/27 08:11:17;;;;;;;1.27;0.68;;;17.00;97.80;;;;;;5030458;28;20033;-82
2022/05/27 08:13:43;;;;;;;2.55;0.70;;;17.00;97.30;;;;;;5030094;28;20025;-83
2022/05/27 08:16:09;;;;;;;1.35;0.80;;;17.00;97.40;;;;;;5031038;28;20670;-83
2022/05/27 08:18:36;;;;;;;2.65;0.80;;;17.00;98.10;;;;;;5031279;28;20044;-83
2022/05/27 08:21:01;;;;;;;2.50;0.80;;;17.10;97.90;;;;;;5028776;28;20480;-81
2022/05/27 08:23:27;;;;;;;2.97;0.75;;;17.20;97.50;;;;;;5029631;28;20954;-81
2022/05/27 08:25:55;;;;;;;2.03;0.68;;;17.20;97.50;;;;;;5028570;28;20022;-84
2022/05/27 08:28:24;;;;;;;2.67;0.47;;;17.30;97.10;;;;;;5030769;28;20033;-82
2022/05/27 08:30:50;;;;;;;3.20;0.80;;;17.30;97.30;;;;;;5029114;28;20480;-83
2022/05/27 08:33:16;;;;;;;1.23;0.60;;;17.40;97.50;;;;;;5030576;28;20075;-80
2022/05/27 08:38:30;;;;;;;1.05;0.60;;;17.30;97.20;;;;;;5030928;28;20453;-82
2022/05/27 08:41:25;;;;;;;3.78;0.93;;;17.30;97.70;;;;;;5030549;28;20063;-82
2022/05/27 08:44:03;;;;;;;0.85;0.50;;;17.40;97.40;;;;;;5034790;28;20037;-81
2022/05/27 08:46:49;;;;;;;2.55;0.60;;;17.40;96.40;;;;;;5034532;28;20108;-82
2022/05/27 08:49:21;;;;;;;4.15;1.45;;;17.50;96.90;;;;;;5033731;28;20029;-82
2022/05/27 08:51:55;;;;;;;1.52;0.85;;;17.60;97.30;;;;;;5033041;28;20393;-82
2022/05/27 08:54:26;;;;;;;3.22;0.75;;;17.70;96.40;;;;;;5035062;28;20117;-82
2022/05/27 09:00:03;;;;;;;6.25;0.63;;;17.80;95.60;;;;;;5034511;28;20056;-82
2022/05/27 09:02:32;;;;;;;3.13;1.20;;;17.80;95.60;;;;;;5034136;28;20025;-82
2022/05/27 09:05:22;;;;;;;1.70;1.05;;;17.70;95.80;;;;;;5033041;28;20075;-83
2022/05/27 09:08:10;;;;;;;2.28;0.70;;;17.70;96.40;;;;;;5036066;28;20033;-82
2022/05/27 09:10:57;;;;;;;5.25;0.88;;;17.80;96.40;;;;;;5036721;28;20026;-82
2022/05/27 09:14:08;;;;;;;6.40;0.80;;;17.80;97.10;;;;;;5035582;28;20021;-82
2022/05/27 09:16:46;;;;;;;3.65;1.48;;;17.80;96.60;;;;;;5033942;28;20051;-83
2022/05/27 09:19:21;;;;;;;2.13;0.75;;;17.90;96.80;;;;;;5036216;28;20449;-81
2022/05/27 09:21:49;;;;;;;6.55;1.05;;;17.90;97.20;;;;;;5037796;28;20099;-81
2022/05/27 09:24:33;;;;;;;1.92;0.88;;;17.90;96.50;;;;;;5036981;28;20030;-81
2022/05/27 09:27:14;;;;;;;4.57;1.55;;;18.00;97.90;;;;;;5035391;28;20026;-82
2022/05/27 09:29:59;;;;;;;2.65;0.80;;;18.00;97.60;;;;;;5033630;28;20038;-82
2022/05/27 09:32:33;;;;;;;1.85;0.90;;;18.10;97.80;;;;;;5034076;28;20045;-83
2022/05/27 09:35:10;;;;;;;3.63;0.90;;;18.20;97.70;;;;;;5033960;28;20022;-83
2022/05/27 09:37:40;;;;;;;12.65;1.30;;;18.30;97.30;;;;;;5032521;28;20433;-82
2022/05/27 09:40:14;;;;;;;5.07;0.98;;;18.30;97.80;;;;;;5033968;28;20518;-82
2022/05/27 09:42:55;;;;;;;5.05;1.10;;;18.30;97.50;;;;;;5031789;28;20091;-82
2022/05/27 09:45:21;;;;;;;2.47;0.80;;;18.40;98.10;;;;;;5033115;28;20033;-83
2022/05/27 09:47:47;;;;;;;2.50;0.90;;;18.50;97.00;;;;;;5033983;28;20025;-82
2022/05/27 09:50:31;;;;;;;1.40;0.93;;;18.50;96.50;;;;;;5033551;28;20050;-82
2022/05/27 09:52:58;;;;;;;0.90;0.70;;;18.60;97.20;;;;;;5031849;28;20490;-83
2022/05/27 09:55:35;;;;;;;2.33;0.93;;;18.70;97.30;;;;;;5032002;28;20028;-82
2022/05/27 09:58:04;;;;;;;1.83;0.85;;;18.70;96.70;;;;;;5033122;28;20099;-82
2022/05/27 10:00:45;;;;;;;1.70;0.73;;;18.70;96.70;;;;;;5032136;28;20021;-82
2022/05/27 10:03:39;;;;;;;1.30;0.80;;;18.60;95.70;;;;;;5033151;28;20062;-83
2022/05/27 10:06:11;;;;;;;1.83;0.82;;;18.50;97.00;;;;;;5022719;28;20145;-83
2022/05/27 10:08:53;;;;;;;1.67;0.75;;;18.50;96.60;;;;;;5032309;28;20033;-82
2022/05/27 10:11:30;;;;;;;2.63;1.13;;;18.50;96.50;;;;;;5031612;28;20033;-83
2022/05/27 10:14:15;;;;;;;4.30;1.00;;;18.30;96.60;;;;;;5031505;28;20029;-82
2022/05/27 10:16:43;;;;;;;4.00;1.00;;;18.20;96.50;;;;;;5032516;28;20048;-82
2022/05/27 10:19:16;;;;;;;2.67;1.02;;;18.10;97.30;;;;;;5031350;28;20033;-84
2022/05/27 10:22:07;;;;;;;;;;;18.20;96.50;;;;;;5031928;28;20482;-84
2022/05/27 10:24:39;;;;;;;2.58;0.77;;;18.30;98.00;;;;;;5030275;28;19905;-82
2022/05/27 10:27:14;;;;;;;3.08;0.88;;;18.30;95.60;;;;;;5030884;28;20021;-82
2022/05/27 10:29:50;;;;;;;2.28;1.02;;;18.30;96.60;;;;;;5031334;28;20033;-83
2022/05/27 10:32:28;;;;;;;1.58;0.80;;;18.40;96.10;;;;;;5032561;28;20057;-82
2022/05/27 10:34:54;;;;;;;0.85;0.60;;;18.40;95.90;;;;;;5031058;28;20500;-83
2022/05/27 10:37:21;;;;;;;1.50;0.60;;;18.50;94.30;;;;;;5030999;28;20053;-81
2022/05/27 10:40:03;;;;;;;0.82;0.70;;;18.60;95.00;;;;;;5032464;28;20424;-81
2022/05/27 10:42:43;;;;;;;2.28;0.77;;;18.60;93.60;;;;;;5032264;28;20052;-81
2022/05/27 10:45:19;;;;;;;1.70;0.75;;;18.40;92.80;;;;;;5032273;28;20491;-82
2022/05/27 10:47:58;;;;;;;6.05;0.85;;;18.20;92.70;;;;;;5032268;28;20048;-80
2022/05/27 10:50:36;;;;;;;1.63;0.70;;;18.10;92.90;;;;;;5031322;28;20033;-82
2022/05/27 10:53:30;;;;;;;1.77;0.70;;;18.10;93.30;;;;;;5030735;28;20118;-80
2022/05/27 10:56:30;;;;;;;1.38;0.65;;;18.10;93.20;;;;;;5030291;28;20501;-82
2022/05/27 11:02:26;;;;;;;0.93;0.60;;;18.40;94.40;;;;;;5031978;28;20130;-84
2022/05/27 11:05:15;;;;;;;1.13;0.60;;;18.80;94.30;;;;;;5031502;28;20022;-84
2022/05/27 11:07:53;;;;;;;2.47;0.60;;;19.40;92.30;;;;;;5032108;28;20030;-85
2022/05/27 11:10:32;;;;;;;1.98;0.60;;;19.70;92.10;;;;;;5031134;28;20025;-84
2022/05/27 11:17:05;;;;;;;4.80;1.00;;;20.20;91.00;;;;;;5028127;28;20103;-83
2022/05/27 11:19:54;;;;;;;0.88;0.57;;;20.10;90.40;;;;;;5032276;28;20063;-83
2022/05/27 11:22:31;;;;;;;1.00;0.63;;;19.70;90.50;;;;;;5031755;28;20116;-83
2022/05/27 11:25:11;;;;;;;4.22;0.93;;;19.50;91.30;;;;;;5032324;28;20036;-84
2022/05/27 11:28:14;;;;;;;3.72;0.85;;;19.40;90.90;;;;;;5032168;28;20026;-83
2022/05/27 11:31:18;;;;;;;1.45;0.60;;;19.30;91.00;;;;;;5037539;28;20034;-84
2022/05/27 11:33:55;;;;;;;3.83;1.00;;;19.20;91.10;;;;;;5038516;28;20056;-83
2022/05/27 11:36:45;;;;;;;2.25;0.90;;;19.20;90.80;;;;;;5030339;28;20068;-84
2022/05/27 11:39:37;;;;;;;1.30;0.70;;;19.40;93.10;;;;;;5031415;28;20053;-84
2022/05/27 11:42:20;;;;;;;4.80;1.00;;;19.70;91.30;;;;;;5031829;28;20041;-84
2022/05/27 11:45:18;;;;;;;2.97;0.73;;;20.10;91.30;;;;;;5030440;28;20036;-85
2022/05/27 11:48:26;;;;;;;1.52;0.57;;;20.30;89.30;;;;;;5030195;28;20029;-84
2022/05/27 11:51:05;;;;;;;1.92;0.70;;;20.60;89.90;;;;;;5032026;28;20116;-84
2022/05/27 11:53:49;;;;;;;1.02;0.60;;;20.70;87.70;;;;;;5031995;28;20029;-85
2022/05/27 11:56:25;;;;;;;3.10;0.80;;;20.70;88.90;;;;;;5029781;28;20029;-84
2022/05/27 11:59:03;;;;;;;2.65;1.00;;;20.80;87.70;;;;;;5030192;28;20437;-83
2022/05/27 12:01:48;;;;;;;3.00;1.15;;;21.00;86.90;;;;;;5030064;28;20025;-84
2022/05/27 12:04:42;;;;;;;0.93;0.55;;;21.10;87.10;;;;;;5030847;28;20033;-85
2022/05/27 12:07:23;;;;;;;3.05;0.93;;;21.30;84.60;;;;;;5030983;28;20041;-84
2022/05/27 12:10:00;;;;;;;1.95;0.60;;;21.40;85.20;;;;;;5031423;28;20030;-85
2022/05/27 12:12:31;;;;;;;4.78;1.00;;;21.40;84.10;;;;;;5032236;28;20036;-84
2022/05/27 12:15:06;;;;;;;2.45;0.80;;;21.60;84.50;;;;;;5033076;28;20033;-87
2022/05/27 12:17:44;;;;;;;2.92;0.40;;;21.50;81.70;;;;;;5032810;28;20083;-85
2022/05/27 12:20:15;;;;;;;4.63;2.00;;;21.60;80.60;;;;;;5031239;28;20076;-85
2022/05/27 12:22:41;;;;;;;1.73;0.73;;;21.70;80.00;;;;;;5029463;28;20132;-85
2022/05/27 12:25:14;;;;;;;1.67;0.80;;;21.70;80.60;;;;;;5031078;28;20104;-86
2022/05/27 12:27:40;;;;;;;0.95;0.50;;;21.80;85.00;;;;;;5029787;28;20021;-85
2022/05/27 12:30:08;;;;;;;1.55;0.50;;;22.10;81.10;;;;;;5030037;28;20553;-85
2022/05/27 12:32:38;;;;;;;4.47;0.70;;;22.20;79.70;;;;;;5029717;28;20053;-86
2022/05/27 12:35:40;;;;;;;1.48;0.82;;;22.30;78.80;;;;;;5029507;28;20029;-85
2022/05/27 12:38:22;;;;;;;3.08;0.55;;;22.40;79.50;;;;;;5029812;28;20033;-85
2022/05/27 12:41:00;;;;;;;4.50;0.60;;;22.40;76.70;;;;;;5029217;28;20025;-85
2022/05/27 12:43:32;;;;;;;2.80;0.73;;;22.40;76.90;;;;;;5031160;28;20042;-86
2022/05/27 12:46:00;;;;;;;1.25;0.50;;;22.30;78.30;;;;;;5028737;28;20482;-84
2022/05/27 12:48:44;;;;;;;1.70;0.60;;;22.30;77.50;;;;;;5030723;28;20025;-85
2022/05/27 12:51:15;;;;;;;3.00;0.73;;;22.30;79.40;;;;;;5030669;28;20359;-85
2022/05/27 12:53:45;;;;;;;1.05;0.50;;;22.30;77.10;;;;;;5029278;28;20141;-83
2022/05/27 13:02:32;;;;;;;1.20;0.60;;;21.90;68.70;;;;;;5030413;28;20405;-85
2022/05/27 13:05:03;;;;;;;6.10;0.70;;;21.80;67.70;;;;;;5024561;28;20033;-84
2022/05/27 13:07:35;;;;;;;2.20;0.60;;;22.00;69.50;;;;;;5029050;28;20072;-84
2022/05/27 13:10:16;;;;;;;2.33;0.50;;;22.10;65.90;;;;;;5029253;28;20049;-83
2022/05/27 13:12:52;;;;;;;1.25;0.52;;;22.10;66.10;;;;;;5028632;28;20060;-83
2022/05/27 13:15:22;;;;;;;2.70;0.98;;;21.90;62.00;;;;;;5029146;28;20091;-83
2022/05/27 13:18:24;;;;;;;2.78;0.50;;;21.70;63.20;;;;;;5030080;28;20105;-85
2022/05/27 13:21:02;;;;;;;3.20;0.70;;;21.40;63.30;;;;;;5028204;28;20033;-84
2022/05/27 13:23:30;;;;;;;4.18;0.98;;;21.20;64.50;;;;;;5029231;28;20045;-84
2022/05/27 13:26:26;;;;;;;2.20;0.60;;;21.20;67.10;;;;;;5028626;28;20029;-85
2022/05/27 13:28:55;;;;;;;2.00;0.65;;;21.40;63.40;;;;;;5033114;28;20120;-84
2022/05/27 13:31:26;;;;;;;4.13;0.75;;;21.50;63.00;;;;;;5033431;28;20088;-83
2022/05/27 13:34:05;;;;;;;4.03;0.52;;;21.80;63.50;;;;;;5033867;28;20026;-85
2022/05/27 13:36:50;;;;;;;2.88;0.75;;;22.10;62.40;;;;;;5033504;28;20026;-85
2022/05/27 13:39:21;;;;;;;3.60;0.80;;;22.30;59.50;;;;;;5034136;28;20045;-84
2022/05/27 13:41:49;;;;;;;4.03;0.80;;;22.40;59.70;;;;;;5033473;28;20481;-84
2022/05/27 13:44:20;;;;;;;1.17;0.52;;;22.60;58.40;;;;;;5033708;28;20032;-85
2022/05/27 13:46:50;;;;;;;1.95;0.75;;;22.70;59.40;;;;;;5036499;28;20148;-85
2022/05/27 13:49:31;;;;;;;4.75;0.68;;;22.60;57.50;;;;;;5039586;28;20056;-83
2022/05/27 13:51:59;;;;;;;5.70;0.93;;;22.70;59.50;;;;;;5035378;28;20033;-84
2022/05/27 13:54:33;;;;;;;2.15;0.50;;;22.70;57.20;;;;;;5037455;28;20025;-83